Time;durP1;ratioP1;P1;durP2;ratioP2;P2;SDS_P1;SDS_P2;PMS_P1;PMS_P2;Temp;Humidity;BMP_temperature;BMP_pressure;BME280_temperature;BME280_humidity;BME280_pressure;Samples;Min_cycle;Max_cycle;Signal;HPM_P1;HPM_P2
2023/09/22 00:01:39;;;;;;;5.77;3.00;;;14.90;99.90;;;;;;5116424;28;20306;-84
2023/09/22 00:04:05;;;;;;;7.13;3.23;;;15.00;99.90;;;;;;5115486;28;20189;-84
2023/09/22 00:06:32;;;;;;;6.97;3.67;;;14.90;99.90;;;;;;5115701;28;20177;-84
2023/09/22 00:08:58;;;;;;;7.03;4.60;;;14.90;99.90;;;;;;5114882;28;20651;-84
2023/09/22 00:11:23;;;;;;;5.47;2.80;;;14.90;99.90;;;;;;5116709;28;20169;-84
2023/09/22 00:13:49;;;;;;;5.17;2.87;;;14.90;99.90;;;;;;5115893;28;20194;-84
2023/09/22 00:16:15;;;;;;;4.53;2.47;;;15.00;99.90;;;;;;5115000;28;20203;-84
2023/09/22 00:18:41;;;;;;;4.83;2.67;;;15.00;99.90;;;;;;5116236;28;20178;-84
2023/09/22 00:21:07;;;;;;;6.40;2.67;;;15.00;99.90;;;;;;5114638;28;20202;-84
2023/09/22 00:23:34;;;;;;;3.43;2.20;;;15.10;99.90;;;;;;5114741;28;20196;-85
2023/09/22 00:26:01;;;;;;;7.07;2.60;;;15.10;99.90;;;;;;5114257;28;20634;-84
2023/09/22 00:28:28;;;;;;;6.80;3.37;;;15.10;99.90;;;;;;5114279;28;20176;-84
2023/09/22 00:30:54;;;;;;;6.43;3.07;;;15.10;99.90;;;;;;5115665;28;20182;-85
2023/09/22 00:33:19;;;;;;;7.07;2.93;;;15.10;99.90;;;;;;5114725;28;20183;-85
2023/09/22 00:35:45;;;;;;;3.20;2.50;;;15.30;99.90;;;;;;5114148;28;20774;-87
2023/09/22 00:38:11;;;;;;;6.47;3.10;;;15.30;99.90;;;;;;5114208;28;20178;-85
2023/09/22 00:40:37;;;;;;;5.27;2.93;;;15.30;99.90;;;;;;5114734;28;20545;-83
2023/09/22 00:43:10;;;;;;;7.03;3.40;;;15.30;99.90;;;;;;5113262;28;20198;-83
2023/09/22 00:45:45;;;;;;;5.13;2.80;;;15.30;99.90;;;;;;5112233;28;20238;-84
2023/09/22 00:48:22;;;;;;;5.10;2.60;;;15.30;99.90;;;;;;5114241;28;20171;-83
2023/09/22 00:50:49;;;;;;;6.20;2.83;;;15.40;99.90;;;;;;5112849;28;20207;-83
2023/09/22 00:53:17;;;;;;;6.07;2.80;;;15.30;99.90;;;;;;5112212;28;20266;-83
2023/09/22 00:55:45;;;;;;;4.20;2.77;;;15.30;99.90;;;;;;5111764;28;20209;-83
2023/09/22 00:58:11;;;;;;;8.23;3.17;;;15.40;99.90;;;;;;5112854;28;20176;-82
2023/09/22 01:00:40;;;;;;;6.83;2.90;;;15.30;99.90;;;;;;5114050;28;20225;-83
2023/09/22 01:03:06;;;;;;;5.67;3.37;;;15.30;99.90;;;;;;5113553;28;20639;-84
2023/09/22 01:05:33;;;;;;;7.43;3.67;;;15.30;99.90;;;;;;5114696;28;20163;-83
2023/09/22 01:07:59;;;;;;;5.37;3.50;;;15.30;99.90;;;;;;5113499;28;20191;-83
2023/09/22 01:10:36;;;;;;;6.97;3.00;;;15.20;99.90;;;;;;5114988;28;20193;-83
2023/09/22 01:13:04;;;;;;;7.67;3.90;;;15.30;99.90;;;;;;5116363;28;20162;-85
2023/09/22 01:15:32;;;;;;;6.13;3.10;;;15.30;99.90;;;;;;5114358;28;20213;-83
2023/09/22 01:17:59;;;;;;;6.87;3.50;;;15.30;99.90;;;;;;5115541;28;20274;-83
2023/09/22 01:20:25;;;;;;;6.30;3.37;;;15.20;99.90;;;;;;5114095;28;20183;-84
2023/09/22 01:22:51;;;;;;;6.07;3.57;;;15.20;99.90;;;;;;5114081;28;20176;-85
2023/09/22 01:25:17;;;;;;;7.77;3.57;;;15.20;99.90;;;;;;5114055;28;20526;-84
2023/09/22 01:27:43;;;;;;;8.00;3.50;;;15.20;99.90;;;;;;5113766;28;20169;-84
2023/09/22 01:30:09;;;;;;;7.63;3.20;;;15.20;99.90;;;;;;5114702;28;20591;-83
2023/09/22 01:32:37;;;;;;;9.57;4.13;;;15.20;99.90;;;;;;5113545;28;20258;-83
2023/09/22 01:35:07;;;;;;;6.90;3.53;;;15.20;99.90;;;;;;5115640;28;20186;-83
2023/09/22 01:37:37;;;;;;;6.77;3.40;;;15.20;99.90;;;;;;5121813;28;20186;-82
2023/09/22 01:40:03;;;;;;;4.60;3.30;;;15.30;99.90;;;;;;5117206;28;20541;-82
2023/09/22 01:42:29;;;;;;;6.60;3.30;;;15.20;99.90;;;;;;5115054;28;20231;-83
2023/09/22 01:44:56;;;;;;;11.23;3.53;;;15.20;99.90;;;;;;5113617;28;20199;-84
2023/09/22 01:47:21;;;;;;;5.30;3.33;;;15.20;99.90;;;;;;5116210;28;20180;-84
2023/09/22 01:49:47;;;;;;;6.53;3.00;;;15.30;99.90;;;;;;5116500;28;20167;-82
2023/09/22 01:52:13;;;;;;;6.67;2.97;;;15.30;99.90;;;;;;5114386;28;20259;-84
2023/09/22 01:54:39;;;;;;;6.40;2.97;;;15.30;99.90;;;;;;5113646;28;20176;-84
2023/09/22 01:57:05;;;;;;;5.27;2.87;;;15.30;99.90;;;;;;5112303;28;20219;-84
2023/09/22 01:59:31;;;;;;;7.37;2.80;;;15.30;99.90;;;;;;5118134;28;20163;-83
2023/09/22 02:01:58;;;;;;;5.57;2.60;;;15.30;99.90;;;;;;5119237;28;20179;-83
2023/09/22 02:04:24;;;;;;;5.67;2.47;;;15.30;99.90;;;;;;5118819;28;20175;-84
2023/09/22 02:06:52;;;;;;;5.33;2.40;;;15.30;99.90;;;;;;5114235;28;20318;-84
2023/09/22 02:09:17;;;;;;;5.77;2.60;;;15.30;99.90;;;;;;5114057;28;20179;-83
2023/09/22 02:11:43;;;;;;;5.17;2.30;;;15.30;99.90;;;;;;5116148;28;20171;-84
2023/09/22 02:14:09;;;;;;;6.00;2.40;;;15.30;99.90;;;;;;5117433;28;20191;-86
2023/09/22 02:16:34;;;;;;;4.47;2.43;;;15.30;99.90;;;;;;5116330;28;20203;-84
2023/09/22 02:19:00;;;;;;;4.70;2.37;;;15.30;99.50;;;;;;5117663;28;20188;-84
2023/09/22 02:21:27;;;;;;;6.93;2.53;;;15.30;99.10;;;;;;5117922;28;20189;-84
2023/09/22 02:23:53;;;;;;;3.07;1.90;;;15.30;99.30;;;;;;5118306;28;20198;-84
2023/09/22 02:26:19;;;;;;;5.60;2.43;;;15.30;98.70;;;;;;5117595;28;20187;-84
2023/09/22 02:28:45;;;;;;;4.20;1.70;;;15.30;97.60;;;;;;5117955;28;20256;-84
2023/09/22 02:31:12;;;;;;;4.43;2.10;;;15.40;95.90;;;;;;5120702;28;20176;-84
2023/09/22 02:33:38;;;;;;;4.50;2.10;;;15.40;94.30;;;;;;5118620;28;20632;-84
2023/09/22 02:36:07;;;;;;;5.33;2.00;;;15.30;94.90;;;;;;5117676;28;20340;-84
2023/09/22 02:38:33;;;;;;;6.30;1.87;;;15.40;94.50;;;;;;5117736;28;20171;-83
2023/09/22 02:40:59;;;;;;;4.80;2.20;;;15.30;93.60;;;;;;5117617;28;20669;-84
2023/09/22 02:43:25;;;;;;;4.43;2.10;;;15.30;92.30;;;;;;5118608;28;20167;-83
2023/09/22 02:45:53;;;;;;;4.83;2.00;;;15.50;90.50;;;;;;5118468;28;20171;-85
2023/09/22 02:48:19;;;;;;;5.90;2.30;;;15.50;85.40;;;;;;5116931;28;20175;-83
2023/09/22 02:50:45;;;;;;;5.57;1.70;;;15.50;82.40;;;;;;5116813;28;20178;-83
2023/09/22 02:53:11;;;;;;;5.10;1.97;;;15.40;85.50;;;;;;5116115;28;20224;-83
2023/09/22 02:55:37;;;;;;;7.43;2.00;;;15.40;86.50;;;;;;5118654;28;20199;-83
2023/09/22 02:58:04;;;;;;;5.30;1.90;;;15.30;89.60;;;;;;5116295;28;20606;-84
2023/09/22 03:00:30;;;;;;;4.43;2.10;;;15.30;89.40;;;;;;5116432;28;20637;-84
2023/09/22 03:02:56;;;;;;;4.93;2.00;;;15.30;90.40;;;;;;5117009;28;20183;-83
2023/09/22 03:05:22;;;;;;;7.50;2.33;;;15.30;90.00;;;;;;5115588;28;20183;-83
2023/09/22 03:07:50;;;;;;;5.07;1.93;;;15.20;90.50;;;;;;5116189;28;20175;-83
2023/09/22 03:10:16;;;;;;;5.27;2.00;;;15.20;89.40;;;;;;5116703;28;20182;-84
2023/09/22 03:12:43;;;;;;;5.27;2.00;;;15.30;87.60;;;;;;5116468;28;20182;-83
2023/09/22 03:15:09;;;;;;;5.50;2.23;;;15.30;83.80;;;;;;5116440;28;20219;-82
2023/09/22 03:17:36;;;;;;;6.03;2.67;;;15.20;81.90;;;;;;5115665;28;20190;-84
2023/09/22 03:20:06;;;;;;;5.17;2.03;;;15.20;83.90;;;;;;5115558;28;20324;-83
2023/09/22 03:22:32;;;;;;;4.07;1.67;;;15.20;84.40;;;;;;5116564;28;20220;-84
2023/09/22 03:24:58;;;;;;;2.90;1.67;;;15.20;82.30;;;;;;5116108;28;20744;-84
2023/09/22 03:27:24;;;;;;;4.63;1.97;;;15.20;80.40;;;;;;5115208;28;20181;-84
2023/09/22 03:29:51;;;;;;;4.90;2.00;;;15.20;75.60;;;;;;5115318;28;20171;-85
2023/09/22 03:32:18;;;;;;;4.67;1.90;;;15.10;74.50;;;;;;5116710;28;20167;-83
2023/09/22 03:34:47;;;;;;;5.57;2.00;;;15.10;75.50;;;;;;5116676;28;20196;-83
2023/09/22 03:37:13;;;;;;;4.27;2.00;;;14.90;76.80;;;;;;5116214;28;20175;-84
2023/09/22 03:39:39;;;;;;;5.77;2.07;;;14.90;76.80;;;;;;5118065;28;20176;-83
2023/09/22 03:42:06;;;;;;;3.90;2.20;;;14.90;75.10;;;;;;5118943;28;20265;-83
2023/09/22 03:44:33;;;;;;;4.30;2.23;;;15.00;74.20;;;;;;5116827;28;20285;-84
2023/09/22 03:46:59;;;;;;;5.77;2.53;;;14.90;72.30;;;;;;5116376;28;20200;-84
2023/09/22 03:49:26;;;;;;;6.10;2.40;;;14.90;69.40;;;;;;5116459;28;20180;-83
2023/09/22 03:51:51;;;;;;;4.33;2.30;;;15.00;68.90;;;;;;5117093;28;20213;-83
2023/09/22 03:54:18;;;;;;;6.83;2.97;;;15.00;69.30;;;;;;5117982;28;20205;-85
2023/09/22 03:56:43;;;;;;;7.20;2.77;;;15.00;69.80;;;;;;5120367;28;20277;-84
2023/09/22 03:59:11;;;;;;;5.37;2.83;;;15.00;67.80;;;;;;5118051;28;20253;-84
2023/09/22 04:01:37;;;;;;;6.27;2.90;;;15.00;65.50;;;;;;5118663;28;20196;-84
2023/09/22 04:04:04;;;;;;;4.60;2.53;;;15.00;63.40;;;;;;5119867;28;20177;-85
2023/09/22 04:06:30;;;;;;;4.90;2.33;;;15.10;59.10;;;;;;5117996;28;20231;-85
2023/09/22 04:08:56;;;;;;;7.17;2.70;;;15.10;54.80;;;;;;5127814;28;20162;-86
2023/09/22 04:11:22;;;;;;;5.53;2.47;;;15.10;55.00;;;;;;5128248;28;20176;-81
2023/09/22 04:13:48;;;;;;;4.13;2.03;;;15.10;47.10;;;;;;5127179;28;20272;-83
2023/09/22 04:16:14;;;;;;;3.80;2.17;;;15.00;42.70;;;;;;5125071;28;20218;-84
2023/09/22 04:18:40;;;;;;;4.47;2.17;;;14.90;45.20;;;;;;5121824;28;20175;-83
2023/09/22 04:21:07;;;;;;;4.40;1.70;;;14.80;47.00;;;;;;5130837;28;20181;-84
2023/09/22 04:23:39;;;;;;;5.60;2.17;;;14.90;42.80;;;;;;5130190;28;20700;-83
2023/09/22 04:26:09;;;;;;;5.53;2.30;;;14.90;40.70;;;;;;5127327;28;20204;-83
2023/09/22 04:28:36;;;;;;;4.93;2.30;;;14.90;40.20;;;;;;5126951;28;20178;-84
2023/09/22 04:31:02;;;;;;;5.00;2.20;;;14.90;43.80;;;;;;5126079;28;20166;-84
2023/09/22 04:33:27;;;;;;;5.13;1.83;;;14.90;44.50;;;;;;5114899;28;20191;-84
2023/09/22 04:35:53;;;;;;;5.03;2.20;;;14.80;42.70;;;;;;5116537;28;20209;-85
2023/09/22 04:38:18;;;;;;;5.23;2.30;;;14.80;44.00;;;;;;5115741;28;20171;-85
2023/09/22 04:40:47;;;;;;;5.00;2.37;;;14.70;48.40;;;;;;5115767;28;20167;-85
2023/09/22 04:43:13;;;;;;;5.03;2.90;;;14.70;51.30;;;;;;5124396;28;20175;-85
2023/09/22 04:45:40;;;;;;;5.53;2.70;;;14.60;53.70;;;;;;5115526;28;20182;-85
2023/09/22 04:48:10;;;;;;;5.30;3.00;;;14.60;53.70;;;;;;5121373;28;20168;-85
2023/09/22 04:50:40;;;;;;;5.20;2.80;;;14.60;55.50;;;;;;5121591;28;20192;-84
2023/09/22 04:53:05;;;;;;;6.83;2.80;;;14.60;55.20;;;;;;5127625;28;20186;-83
2023/09/22 04:55:37;;;;;;;5.93;3.13;;;14.50;57.90;;;;;;5115194;28;20221;-85
2023/09/22 04:58:07;;;;;;;6.33;2.70;;;14.50;62.40;;;;;;5114248;28;20647;-84
2023/09/22 05:00:33;;;;;;;5.63;3.00;;;14.50;61.90;;;;;;5114004;28;20183;-84
2023/09/22 05:03:00;;;;;;;5.07;2.27;;;14.40;61.50;;;;;;5127877;28;20190;-81
2023/09/22 05:05:26;;;;;;;5.70;2.50;;;14.40;64.90;;;;;;5120092;28;20175;-85
2023/09/22 05:07:53;;;;;;;3.13;2.03;;;14.30;68.10;;;;;;5116645;28;20180;-85
2023/09/22 05:10:19;;;;;;;6.43;2.33;;;14.30;69.60;;;;;;5114118;28;20175;-84
2023/09/22 05:12:44;;;;;;;5.00;2.13;;;14.30;73.00;;;;;;5114898;28;20168;-84
2023/09/22 05:15:10;;;;;;;5.27;2.37;;;14.20;74.60;;;;;;5114003;28;20192;-84
2023/09/22 05:17:36;;;;;;;5.20;2.17;;;14.20;76.90;;;;;;5113017;28;20184;-83
2023/09/22 05:20:11;;;;;;;4.03;2.30;;;14.30;75.50;;;;;;5118460;28;20173;-84
2023/09/22 05:22:38;;;;;;;5.20;1.90;;;14.20;74.70;;;;;;5117866;28;20199;-84
2023/09/22 05:25:05;;;;;;;5.90;1.63;;;14.20;77.70;;;;;;5115880;28;20169;-84
2023/09/22 05:27:31;;;;;;;10.03;1.80;;;14.10;77.40;;;;;;5129272;28;20189;-85
2023/09/22 05:29:57;;;;;;;4.43;1.90;;;14.10;76.90;;;;;;5127174;28;20171;-85
2023/09/22 05:32:23;;;;;;;4.33;1.90;;;14.10;77.00;;;;;;5115336;28;20174;-84
2023/09/22 05:34:51;;;;;;;4.40;1.83;;;14.10;76.90;;;;;;5114819;28;20184;-83
2023/09/22 05:37:19;;;;;;;4.97;1.83;;;14.10;76.20;;;;;;5114320;28;20175;-85
2023/09/22 05:39:44;;;;;;;5.13;2.00;;;14.10;74.50;;;;;;5113566;28;20173;-85
2023/09/22 05:42:11;;;;;;;6.37;1.97;;;14.00;75.00;;;;;;5095080;28;20189;-85
2023/09/22 05:44:37;;;;;;;4.67;1.80;;;14.00;76.60;;;;;;5096695;28;20177;-86
2023/09/22 05:47:03;;;;;;;3.23;1.70;;;14.00;77.40;;;;;;5099850;28;20271;-83
2023/09/22 05:49:29;;;;;;;3.93;1.53;;;14.00;76.00;;;;;;5098364;28;20212;-83
2023/09/22 05:51:55;;;;;;;3.53;1.70;;;13.90;76.80;;;;;;5101528;28;20243;-83
2023/09/22 05:54:21;;;;;;;4.80;2.13;;;14.00;75.70;;;;;;5118936;28;20193;-85
2023/09/22 05:56:47;;;;;;;3.37;1.60;;;14.00;75.30;;;;;;5109727;28;20199;-82
2023/09/22 05:59:13;;;;;;;4.57;1.83;;;14.00;74.40;;;;;;5102160;28;20159;-84
2023/09/22 06:01:39;;;;;;;4.17;1.63;;;14.00;75.20;;;;;;5098788;28;20195;-83
2023/09/22 06:04:05;;;;;;;5.70;2.03;;;14.00;73.90;;;;;;5102496;28;20174;-84
2023/09/22 06:06:32;;;;;;;5.30;2.13;;;14.10;74.20;;;;;;5102988;28;20266;-86
2023/09/22 06:08:59;;;;;;;3.37;1.80;;;14.10;73.70;;;;;;5113022;28;20164;-84
2023/09/22 06:11:26;;;;;;;7.10;2.23;;;14.20;73.20;;;;;;5099910;28;20191;-84
2023/09/22 06:13:52;;;;;;;5.70;3.00;;;14.20;72.20;;;;;;5109046;28;20187;-86
2023/09/22 06:16:18;;;;;;;5.07;2.53;;;14.30;69.80;;;;;;5116683;28;20747;-84
2023/09/22 06:18:45;;;;;;;5.77;2.63;;;14.30;68.40;;;;;;5095298;28;20181;-83
2023/09/22 06:21:11;;;;;;;6.23;2.13;;;14.30;61.90;;;;;;5098470;28;20251;-85
2023/09/22 06:23:38;;;;;;;5.73;2.10;;;14.40;59.40;;;;;;5112257;28;20622;-84
2023/09/22 06:26:08;;;;;;;6.73;2.37;;;14.30;58.70;;;;;;5117196;28;20640;-87
2023/09/22 06:28:33;;;;;;;5.23;2.20;;;14.30;57.00;;;;;;5117329;28;20171;-86
2023/09/22 06:31:03;;;;;;;4.60;2.33;;;14.30;54.90;;;;;;5119581;28;20540;-84
2023/09/22 06:33:32;;;;;;;4.57;2.80;;;14.40;55.50;;;;;;5118559;28;20633;-86
2023/09/22 06:36:01;;;;;;;4.90;2.50;;;14.40;51.80;;;;;;5118364;28;20567;-84
2023/09/22 06:38:29;;;;;;;4.73;2.70;;;14.50;48.50;;;;;;5118831;28;20169;-85
2023/09/22 06:40:57;;;;;;;5.43;2.63;;;14.50;43.20;;;;;;5120137;28;20182;-84
2023/09/22 06:43:24;;;;;;;5.63;3.03;;;14.50;40.30;;;;;;5118740;28;20200;-85
2023/09/22 06:45:54;;;;;;;5.10;2.73;;;14.60;36.50;;;;;;5119292;28;20179;-86
2023/09/22 06:48:25;;;;;;;7.20;3.23;;;14.60;35.10;;;;;;5116892;28;20270;-84
2023/09/22 06:50:52;;;;;;;5.47;2.80;;;14.80;33.30;;;;;;5126279;28;20179;-83
2023/09/22 06:53:19;;;;;;;5.50;2.73;;;14.80;32.00;;;;;;5138909;28;20187;-84
2023/09/22 06:55:45;;;;;;;5.07;2.27;;;14.90;29.60;;;;;;5137520;28;20244;-84
2023/09/22 06:58:11;;;;;;;5.30;2.43;;;14.90;29.20;;;;;;5134654;28;20175;-85
2023/09/22 07:00:36;;;;;;;6.37;3.00;;;14.90;28.40;;;;;;5121985;28;20186;-84
2023/09/22 07:03:03;;;;;;;5.73;2.43;;;14.90;26.30;;;;;;5137810;28;20180;-85
2023/09/22 07:05:28;;;;;;;5.40;2.10;;;15.00;27.00;;;;;;5120671;28;20167;-87
2023/09/22 07:07:55;;;;;;;5.67;2.27;;;15.10;22.50;;;;;;5139512;28;20249;-86
2023/09/22 07:10:23;;;;;;;4.97;2.40;;;15.20;19.50;;;;;;5138935;28;20199;-86
2023/09/22 07:12:49;;;;;;;5.27;2.53;;;15.20;17.50;;;;;;5127367;28;20167;-86
2023/09/22 07:15:18;;;;;;;5.17;2.50;;;15.30;17.60;;;;;;5123230;28;20217;-87
2023/09/22 07:17:47;;;;;;;5.53;2.77;;;15.40;15.40;;;;;;5120577;28;20193;-86
2023/09/22 07:20:15;;;;;;;6.23;2.77;;;15.40;12.20;;;;;;5120876;28;20181;-84
2023/09/22 07:22:43;;;;;;;4.60;2.50;;;15.50;9.50;;;;;;5119762;28;20174;-85
2023/09/22 07:25:09;;;;;;;5.13;3.10;;;15.40;6.00;;;;;;5118031;28;20160;-85
2023/09/22 07:27:43;;;;;;;5.40;2.90;;;15.40;4.80;;;;;;5119765;28;20170;-86
2023/09/22 07:30:10;;;;;;;4.77;2.30;;;15.50;6.00;;;;;;5119319;28;20194;-87
2023/09/22 07:32:38;;;;;;;4.73;2.33;;;15.60;1.40;;;;;;5117807;28;20169;-85
2023/09/22 07:35:04;;;;;;;8.60;2.60;;;15.60;1.00;;;;;;5118485;28;20216;-84
2023/09/22 07:37:30;;;;;;;5.60;2.10;;;15.80;1.00;;;;;;5116674;28;20236;-86
2023/09/22 07:39:58;;;;;;;4.93;1.97;;;15.80;1.00;;;;;;5116458;28;20174;-85
2023/09/22 07:42:27;;;;;;;4.00;1.60;;;15.80;1.00;;;;;;5116942;28;20182;-85
2023/09/22 07:44:52;;;;;;;3.07;1.60;;;15.90;1.00;;;;;;5117244;28;20170;-84
2023/09/22 07:47:18;;;;;;;5.40;1.57;;;15.90;1.00;;;;;;5116313;28;20578;-84
2023/09/22 07:49:44;;;;;;;4.20;1.60;;;15.90;1.00;;;;;;5116035;28;20653;-85
2023/09/22 07:52:11;;;;;;;5.87;1.50;;;15.80;1.00;;;;;;5117115;28;20217;-84
2023/09/22 07:54:37;;;;;;;5.23;1.77;;;15.70;1.00;;;;;;5115804;28;20171;-85
2023/09/22 07:57:04;;;;;;;2.90;1.50;;;15.80;1.00;;;;;;5115806;28;20323;-84
2023/09/22 07:59:30;;;;;;;2.90;1.37;;;15.80;1.00;;;;;;5115932;28;20176;-85
2023/09/22 08:01:59;;;;;;;3.30;1.50;;;15.80;1.00;;;;;;5115678;28;20171;-86
2023/09/22 08:04:26;;;;;;;3.30;1.40;;;15.80;1.00;;;;;;5115870;28;20183;-86
2023/09/22 08:06:52;;;;;;;4.83;1.40;;;15.70;1.00;;;;;;5116005;28;20159;-87
2023/09/22 08:09:18;;;;;;;6.87;2.10;;;15.70;1.00;;;;;;5116164;28;20174;-85
2023/09/22 08:11:44;;;;;;;3.53;1.60;;;15.70;1.00;;;;;;5116185;28;20178;-82
2023/09/22 08:14:10;;;;;;;3.27;1.60;;;15.80;1.00;;;;;;5118498;28;20198;-84
2023/09/22 08:16:35;;;;;;;5.93;1.50;;;15.90;1.00;;;;;;5118025;28;20226;-83
2023/09/22 08:19:01;;;;;;;4.93;1.57;;;15.80;1.00;;;;;;5120771;28;20184;-84
2023/09/22 08:21:27;;;;;;;5.80;2.17;;;16.00;1.00;;;;;;5124211;28;20253;-83
2023/09/22 08:23:53;;;;;;;3.10;1.40;;;16.10;1.00;;;;;;5127187;28;20235;-82
2023/09/22 08:26:18;;;;;;;4.30;1.40;;;16.10;1.00;;;;;;5131545;28;20200;-81
2023/09/22 08:28:46;;;;;;;2.33;1.27;;;16.30;1.00;;;;;;5128581;28;20178;-85
2023/09/22 08:31:12;;;;;;;3.97;1.30;;;16.30;1.00;;;;;;5136974;28;20176;-82
2023/09/22 08:33:42;;;;;;;2.53;1.10;;;16.30;1.00;;;;;;5135481;28;20216;-83
2023/09/22 08:36:08;;;;;;;2.60;1.20;;;16.20;1.00;;;;;;5133649;28;20250;-87
2023/09/22 08:38:35;;;;;;;3.67;1.83;;;16.10;1.00;;;;;;5133365;28;20204;-82
2023/09/22 08:41:04;;;;;;;4.07;2.43;;;16.20;1.00;;;;;;5121529;28;20183;-83
2023/09/22 08:43:32;;;;;;;3.80;1.77;;;16.30;1.00;;;;;;5128504;28;20167;-85
2023/09/22 08:46:00;;;;;;;4.57;1.70;;;16.40;1.00;;;;;;5103392;28;20178;-84
2023/09/22 08:48:26;;;;;;;3.53;1.40;;;16.60;1.00;;;;;;5128248;28;20590;-83
2023/09/22 08:50:52;;;;;;;2.67;1.20;;;16.70;1.00;;;;;;5129477;28;20171;-83
2023/09/22 08:53:19;;;;;;;3.40;1.30;;;16.80;1.00;;;;;;5136588;28;20600;-82
2023/09/22 08:55:45;;;;;;;3.03;1.40;;;16.80;1.00;;;;;;5136136;28;20211;-84
2023/09/22 08:58:11;;;;;;;2.67;1.10;;;16.70;1.00;;;;;;5134345;28;20187;-83
2023/09/22 09:00:38;;;;;;;2.90;1.17;;;16.60;1.00;;;;;;5125562;28;20561;-83
2023/09/22 09:03:09;;;;;;;4.13;1.40;;;16.50;1.00;;;;;;5131412;28;20142;-82
2023/09/22 09:05:39;;;;;;;3.23;1.60;;;16.40;1.00;;;;;;5120925;28;20257;-85
2023/09/22 09:08:15;;;;;;;3.27;1.40;;;16.50;1.00;;;;;;5116745;28;20174;-84
2023/09/22 09:10:43;;;;;;;5.07;1.63;;;16.50;1.00;;;;;;5125609;28;20190;-83
2023/09/22 09:13:13;;;;;;;5.30;1.70;;;16.60;1.00;;;;;;5133676;28;20242;-83
2023/09/22 09:15:50;;;;;;;7.87;2.40;;;16.70;1.00;;;;;;5122253;28;20208;-83
2023/09/22 09:18:20;;;;;;;3.37;1.40;;;16.80;1.00;;;;;;5131131;28;20196;-85
2023/09/22 09:20:48;;;;;;;3.20;1.13;;;16.90;1.00;;;;;;5122096;28;20166;-83
2023/09/22 09:23:20;;;;;;;4.10;1.40;;;17.00;1.00;;;;;;5125555;28;20189;-83
2023/09/22 09:25:56;;;;;;;4.90;1.20;;;17.10;1.00;;;;;;5123776;28;20533;-85
2023/09/22 09:28:24;;;;;;;2.87;1.27;;;17.30;1.00;;;;;;5121894;28;20166;-83
2023/09/22 09:30:54;;;;;;;3.13;1.30;;;17.40;1.00;;;;;;5121704;28;20178;-83
2023/09/22 09:33:31;;;;;;;3.23;1.33;;;17.40;1.00;;;;;;5121369;28;20177;-84
2023/09/22 09:35:58;;;;;;;3.27;1.20;;;17.70;1.00;;;;;;5120123;28;20209;-84
2023/09/22 09:38:28;;;;;;;2.93;1.27;;;17.80;1.00;;;;;;5122936;28;20167;-82
2023/09/22 09:40:55;;;;;;;3.13;1.17;;;17.80;1.00;;;;;;5117960;28;20174;-84
2023/09/22 09:43:21;;;;;;;2.93;1.20;;;17.80;1.00;;;;;;5119482;28;20527;-85
2023/09/22 09:45:50;;;;;;;2.53;1.20;;;18.00;1.00;;;;;;5118737;28;20183;-87
2023/09/22 09:48:18;;;;;;;4.83;1.20;;;18.00;1.00;;;;;;5119123;28;20652;-84
2023/09/22 09:50:50;;;;;;;3.13;1.20;;;18.20;1.00;;;;;;5118896;28;20166;-84
2023/09/22 09:53:43;;;;;;;3.73;1.03;;;18.30;1.00;;;;;;5119676;28;20193;-84
2023/09/22 09:56:15;;;;;;;4.30;1.53;;;18.60;1.00;;;;;;5118985;28;20255;-84
2023/09/22 09:58:42;;;;;;;3.33;1.50;;;18.90;1.00;;;;;;5120836;28;20159;-83
2023/09/22 10:01:12;;;;;;;5.47;1.40;;;18.80;1.00;;;;;;5118599;28;20162;-85
2023/09/22 10:03:42;;;;;;;3.37;1.60;;;18.50;1.00;;;;;;5119475;28;20162;-85
2023/09/22 10:06:17;;;;;;;3.87;1.60;;;18.30;1.00;;;;;;5118663;28;20182;-84
2023/09/22 10:08:43;;;;;;;4.30;1.30;;;18.50;1.00;;;;;;5119123;28;20278;-84
2023/09/22 10:11:13;;;;;;;3.93;1.60;;;18.30;1.00;;;;;;5118445;28;20170;-84
2023/09/22 10:13:39;;;;;;;4.47;1.60;;;18.40;1.00;;;;;;5119397;28;20531;-83
2023/09/22 10:16:08;;;;;;;3.43;1.50;;;18.40;1.00;;;;;;5120469;28;20202;-83
2023/09/22 10:18:51;;;;;;;3.13;1.57;;;18.50;1.00;;;;;;5121672;28;20175;-84
2023/09/22 10:21:33;;;;;;;2.87;1.50;;;18.50;1.00;;;;;;5118791;28;20177;-84
2023/09/22 10:24:20;;;;;;;4.03;1.93;;;18.50;1.00;;;;;;5119813;28;20172;-84
2023/09/22 10:27:07;;;;;;;4.73;1.53;;;18.60;1.00;;;;;;5119394;28;20699;-84
2023/09/22 10:29:33;;;;;;;4.70;1.90;;;18.60;99.90;;;;;;5118253;28;20166;-85
2023/09/22 10:32:26;;;;;;;3.60;1.40;;;18.50;99.90;;;;;;5118021;28;20180;-84
2023/09/22 10:35:09;;;;;;;3.47;1.30;;;18.40;99.90;;;;;;5122794;28;20197;-83
2023/09/22 10:37:36;;;;;;;4.10;1.80;;;18.30;99.90;;;;;;5118431;28;20598;-83
2023/09/22 10:40:11;;;;;;;3.80;1.30;;;18.40;99.90;;;;;;5124489;28;20173;-83
2023/09/22 10:42:51;;;;;;;4.63;1.20;;;18.40;99.90;;;;;;5121110;28;20172;-84
2023/09/22 10:45:25;;;;;;;3.93;1.40;;;18.40;99.90;;;;;;5118077;28;20632;-84
2023/09/22 10:47:52;;;;;;;3.13;1.00;;;18.30;99.90;;;;;;5117131;28;20183;-84
2023/09/22 10:50:22;;;;;;;2.40;1.20;;;18.30;99.90;;;;;;5118335;28;20223;-83
2023/09/22 10:52:56;;;;;;;2.83;1.40;;;18.30;99.90;;;;;;5118352;28;20198;-83
2023/09/22 10:55:34;;;;;;;3.40;1.20;;;18.50;99.90;;;;;;5118219;28;20230;-84
2023/09/22 10:58:04;;;;;;;4.53;1.43;;;18.70;99.90;;;;;;5117775;28;20163;-83
2023/09/22 11:00:42;;;;;;;2.47;0.97;;;18.90;99.90;;;;;;5118745;28;20204;-84
2023/09/22 11:03:11;;;;;;;4.07;1.10;;;18.80;99.90;;;;;;5119163;28;20282;-85
2023/09/22 11:05:41;;;;;;;4.43;1.37;;;18.80;99.90;;;;;;5119886;28;20162;-85
2023/09/22 11:08:15;;;;;;;3.77;1.20;;;18.70;99.90;;;;;;5119005;28;20564;-83
2023/09/22 11:10:43;;;;;;;3.60;1.20;;;18.60;99.90;;;;;;5117432;28;20269;-85
2023/09/22 11:13:09;;;;;;;2.37;1.10;;;18.50;99.90;;;;;;5117002;28;20178;-84
2023/09/22 11:15:46;;;;;;;2.70;1.10;;;18.50;99.90;;;;;;5120933;28;20211;-85
2023/09/22 11:18:24;;;;;;;4.13;1.10;;;18.40;99.90;;;;;;5117573;28;20190;-84
2023/09/22 11:20:55;;;;;;;3.77;1.37;;;18.40;99.90;;;;;;5117060;28;20168;-84
2023/09/22 11:23:22;;;;;;;3.17;1.47;;;18.30;99.90;;;;;;5116718;28;20242;-84
2023/09/22 11:26:07;;;;;;;5.63;1.30;;;18.20;99.90;;;;;;5117833;28;20186;-85
2023/09/22 11:28:33;;;;;;;4.00;1.30;;;18.30;99.90;;;;;;5104518;28;20239;-85
2023/09/22 11:31:06;;;;;;;4.23;1.30;;;18.40;99.90;;;;;;5116978;28;20167;-85
2023/09/22 11:33:31;;;;;;;5.63;1.50;;;18.40;99.90;;;;;;5117716;28;20637;-83
2023/09/22 11:35:57;;;;;;;2.97;1.30;;;18.30;99.90;;;;;;5118963;28;20205;-84
2023/09/22 11:38:27;;;;;;;5.97;1.40;;;18.20;99.90;;;;;;5116760;28;20170;-85
2023/09/22 11:41:04;;;;;;;2.73;1.20;;;18.20;99.90;;;;;;5119049;28;20583;-84
2023/09/22 11:43:31;;;;;;;5.37;1.30;;;18.20;99.90;;;;;;5125927;28;20244;-84
2023/09/22 11:46:10;;;;;;;3.07;1.20;;;18.20;99.90;;;;;;5125923;28;20252;-85
2023/09/22 11:48:55;;;;;;;3.67;1.40;;;18.30;99.90;;;;;;5120037;28;20318;-84
2023/09/22 11:51:21;;;;;;;2.50;1.00;;;18.30;99.90;;;;;;5118045;28;20171;-84
2023/09/22 11:53:47;;;;;;;4.50;1.37;;;18.30;1.00;;;;;;5116819;28;20228;-85
2023/09/22 11:56:13;;;;;;;3.37;1.40;;;18.20;1.00;;;;;;5116345;28;20202;-84
2023/09/22 11:58:39;;;;;;;3.60;1.10;;;18.30;1.00;;;;;;5116065;28;20176;-85
2023/09/22 12:01:05;;;;;;;2.90;1.33;;;18.30;1.00;;;;;;5115519;28;20238;-85
2023/09/22 12:03:34;;;;;;;3.83;1.50;;;18.40;1.00;;;;;;5115684;28;20266;-84
2023/09/22 12:06:02;;;;;;;2.73;1.40;;;18.40;1.00;;;;;;5118977;28;20225;-85
2023/09/22 12:08:33;;;;;;;4.87;1.40;;;18.50;1.00;;;;;;5120721;28;20193;-83
2023/09/22 12:11:00;;;;;;;3.70;1.50;;;18.40;1.00;;;;;;5116603;28;20195;-83
2023/09/22 12:13:27;;;;;;;4.93;1.63;;;18.40;1.00;;;;;;5117047;28;20539;-84
2023/09/22 12:15:53;;;;;;;3.40;1.40;;;18.30;1.00;;;;;;5120462;28;20213;-86
2023/09/22 12:18:18;;;;;;;6.70;4.07;;;18.30;1.00;;;;;;5129317;28;20174;-82
2023/09/22 12:20:44;;;;;;;5.63;2.30;;;18.50;1.00;;;;;;5136581;28;20194;-83
2023/09/22 12:23:11;;;;;;;5.13;1.60;;;18.60;1.00;;;;;;5121783;28;20207;-83
2023/09/22 12:25:36;;;;;;;3.90;1.50;;;18.70;1.00;;;;;;5135877;28;20572;-83
2023/09/22 12:28:03;;;;;;;3.90;1.30;;;18.90;1.00;;;;;;5119129;28;20173;-84
2023/09/22 12:30:29;;;;;;;3.80;1.33;;;19.10;1.00;;;;;;5128397;28;20219;-85
2023/09/22 12:32:56;;;;;;;6.33;1.80;;;19.10;1.00;;;;;;5119398;28;20185;-86
2023/09/22 12:35:23;;;;;;;5.17;1.63;;;19.30;1.00;;;;;;5123566;28;20169;-84
2023/09/22 12:37:52;;;;;;;4.53;1.50;;;19.20;99.90;;;;;;5121480;28;20282;-85
2023/09/22 12:40:18;;;;;;;3.63;1.30;;;19.10;99.90;;;;;;5119414;28;20239;-85
2023/09/22 12:42:44;;;;;;;3.47;1.50;;;19.20;99.90;;;;;;5119599;28;20188;-86
2023/09/22 12:45:09;;;;;;;5.17;1.47;;;19.20;99.90;;;;;;5126758;28;20210;-83
2023/09/22 12:47:35;;;;;;;3.10;1.20;;;19.10;99.90;;;;;;5134750;28;20173;-81
2023/09/22 12:50:08;;;;;;;4.17;1.73;;;19.20;99.90;;;;;;5134817;28;20682;-85
2023/09/22 12:52:35;;;;;;;2.90;1.10;;;19.20;99.90;;;;;;5133088;28;20195;-82
2023/09/22 12:55:03;;;;;;;4.07;1.40;;;19.40;99.90;;;;;;5133251;28;20241;-82